Lawrenceville, Arkansas
Current Conditions -  °F | °C
As of 12:55 PM on Thursday 23 Oct 2014 (Local Time) from KSGT Reporting Station
Clear Clear  
Wind Chill: 14°   Ceiling: Unl
Heat Index: 14°   Visibility: 10mi
Dew Point:   Wind: 3mph
Humidity: 72%   Direction: 20°NNE
Pressure: 30.2"   Gusts: NA
Location:  34.5919°N, 91.1409°W
Report Text: KSGT 231755Z AUTO 02003KT 10SM CLR 14/09 A3020 RMK AO1 10140 20070 57010
Loading
Personal Weather Stations






























Interactive Weather Map
Tropical Storm Tracking
New forecast layout! Learn more

10-Day Weather Forecast

Advertisements
Track Severe Weather on mobile